sensor_id;sensor_type;location;lat;lon;timestamp;pressure;altitude;pressure_sealevel;temperature;humidity
67341;BME280;54227;45.198;5.732;2022-11-11T00:01:22;100584.59;;;23.49;40.76
67341;BME280;54227;45.198;5.732;2022-11-11T00:03:47;100578.59;;;23.47;40.57
67341;BME280;54227;45.198;5.732;2022-11-11T00:06:15;100580.56;;;23.47;40.58
67341;BME280;54227;45.198;5.732;2022-11-11T00:08:41;100582.56;;;23.46;40.59
67341;BME280;54227;45.198;5.732;2022-11-11T00:11:09;100577.34;;;23.45;40.57
67341;BME280;54227;45.198;5.732;2022-11-11T00:13:35;100575.34;;;23.45;40.53
67341;BME280;54227;45.198;5.732;2022-11-11T00:16:07;100575.72;;;23.44;40.60
67341;BME280;54227;45.198;5.732;2022-11-11T00:18:33;100572.56;;;23.45;40.63
67341;BME280;54227;45.198;5.732;2022-11-11T00:21:17;100565.06;;;23.49;40.65
67341;BME280;54227;45.198;5.732;2022-11-11T00:24:01;100567.28;;;23.59;40.80
67341;BME280;54227;45.198;5.732;2022-11-11T00:26:45;100568.66;;;23.66;39.91
67341;BME280;54227;45.198;5.732;2022-11-11T00:29:10;100569.91;;;23.68;39.88
67341;BME280;54227;45.198;5.732;2022-11-11T00:31:35;100569.81;;;23.65;39.98
67341;BME280;54227;45.198;5.732;2022-11-11T00:34:21;100573.78;;;23.64;40.14
67341;BME280;54227;45.198;5.732;2022-11-11T00:36:46;100573.44;;;23.65;40.02
67341;BME280;54227;45.198;5.732;2022-11-11T00:39:11;100572.31;;;23.70;40.49
67341;BME280;54227;45.198;5.732;2022-11-11T00:41:37;100575.63;;;23.75;39.90
67341;BME280;54227;45.198;5.732;2022-11-11T00:44:02;100579.69;;;23.78;39.51
67341;BME280;54227;45.198;5.732;2022-11-11T00:46:28;100579.69;;;23.78;39.68
67341;BME280;54227;45.198;5.732;2022-11-11T00:49:11;100579.19;;;23.72;39.62
67341;BME280;54227;45.198;5.732;2022-11-11T00:51:55;100572.69;;;23.68;39.85
67341;BME280;54227;45.198;5.732;2022-11-11T00:54:21;100581.34;;;23.63;39.95
67341;BME280;54227;45.198;5.732;2022-11-11T00:56:46;100587.66;;;23.60;39.87
67341;BME280;54227;45.198;5.732;2022-11-11T00:59:12;100584.75;;;23.56;39.98
67341;BME280;54227;45.198;5.732;2022-11-11T01:01:37;100587.06;;;23.51;40.03
67341;BME280;54227;45.198;5.732;2022-11-11T01:04:03;100599.47;;;23.53;39.93
67341;BME280;54227;45.198;5.732;2022-11-11T01:06:29;100601.03;;;23.51;39.93
67341;BME280;54227;45.198;5.732;2022-11-11T01:08:54;100597.06;;;23.52;39.95
67341;BME280;54227;45.198;5.732;2022-11-11T01:11:24;100595.34;;;23.47;40.05
67341;BME280;54227;45.198;5.732;2022-11-11T01:13:50;100604.16;;;23.49;39.80
67341;BME280;54227;45.198;5.732;2022-11-11T01:16:19;100599.75;;;23.48;39.86
67341;BME280;54227;45.198;5.732;2022-11-11T01:18:44;100605.72;;;23.47;39.92
67341;BME280;54227;45.198;5.732;2022-11-11T01:21:19;100612.47;;;23.46;39.85
67341;BME280;54227;45.198;5.732;2022-11-11T01:23:47;100610.47;;;23.46;39.89
67341;BME280;54227;45.198;5.732;2022-11-11T01:28:41;100607.97;;;23.41;39.96
67341;BME280;54227;45.198;5.732;2022-11-11T01:31:12;100614.34;;;23.42;39.84
67341;BME280;54227;45.198;5.732;2022-11-11T01:33:38;100609.94;;;23.41;39.93
67341;BME280;54227;45.198;5.732;2022-11-11T01:38:30;100609.94;;;23.41;39.84
67341;BME280;54227;45.198;5.732;2022-11-11T01:40:55;100604.72;;;23.39;39.79
67341;BME280;54227;45.198;5.732;2022-11-11T01:43:22;100599.16;;;23.39;39.73
67341;BME280;54227;45.198;5.732;2022-11-11T01:48:35;100606.72;;;23.39;39.76
67341;BME280;54227;45.198;5.732;2022-11-11T01:51:36;100605.91;;;23.38;39.80
67341;BME280;54227;45.198;5.732;2022-11-11T01:54:06;100607.91;;;23.38;39.74
67341;BME280;54227;45.198;5.732;2022-11-11T01:56:35;100601.50;;;23.37;39.62
67341;BME280;54227;45.198;5.732;2022-11-11T01:59:03;100607.09;;;23.37;39.68
67341;BME280;54227;45.198;5.732;2022-11-11T02:01:30;100610.69;;;23.38;39.72
67341;BME280;54227;45.198;5.732;2022-11-11T02:03:57;100611.50;;;23.38;39.61
67341;BME280;54227;45.198;5.732;2022-11-11T02:06:43;100608.72;;;23.38;39.55
67341;BME280;54227;45.198;5.732;2022-11-11T02:09:09;100612.66;;;23.37;39.40
67341;BME280;54227;45.198;5.732;2022-11-11T02:11:36;100609.41;;;23.35;39.57
67341;BME280;54227;45.198;5.732;2022-11-11T02:14:23;100617.88;;;23.39;39.51
67341;BME280;54227;45.198;5.732;2022-11-11T02:17:05;100612.66;;;23.37;39.63
67341;BME280;54227;45.198;5.732;2022-11-11T02:19:41;100617.06;;;23.38;39.50
67341;BME280;54227;45.198;5.732;2022-11-11T02:22:13;100623.84;;;23.37;39.52
67341;BME280;54227;45.198;5.732;2022-11-11T02:24:41;100623.47;;;23.39;39.64
67341;BME280;54227;45.198;5.732;2022-11-11T02:27:11;100617.53;;;23.40;39.71
67341;BME280;54227;45.198;5.732;2022-11-11T02:29:39;100619.59;;;23.43;39.68
67341;BME280;54227;45.198;5.732;2022-11-11T02:32:05;100628.84;;;23.47;39.49
67341;BME280;54227;45.198;5.732;2022-11-11T02:34:32;100620.09;;;23.49;39.48
67341;BME280;54227;45.198;5.732;2022-11-11T02:36:58;100627.41;;;23.53;39.51
67341;BME280;54227;45.198;5.732;2022-11-11T02:39:26;100622.69;;;23.57;39.42
67341;BME280;54227;45.198;5.732;2022-11-11T02:41:51;100622.34;;;23.59;39.46
67341;BME280;54227;45.198;5.732;2022-11-11T02:44:26;100630.72;;;23.59;39.37
67341;BME280;54227;45.198;5.732;2022-11-11T02:46:52;100633.63;;;23.63;39.30
67341;BME280;54227;45.198;5.732;2022-11-11T02:49:17;100628.03;;;23.63;39.33
67341;BME280;54227;45.198;5.732;2022-11-11T02:51:43;100622.88;;;23.65;39.21
67341;BME280;54227;45.198;5.732;2022-11-11T02:54:08;100628.47;;;23.65;39.16
67341;BME280;54227;45.198;5.732;2022-11-11T02:56:33;100621.34;;;23.67;39.18
67341;BME280;54227;45.198;5.732;2022-11-11T02:59:17;100637.75;;;23.69;39.18
67341;BME280;54227;45.198;5.732;2022-11-11T03:01:43;100640.53;;;23.69;39.29
67341;BME280;54227;45.198;5.732;2022-11-11T03:04:08;100639.38;;;23.70;39.14
67341;BME280;54227;45.198;5.732;2022-11-11T03:06:34;100643.78;;;23.71;39.12
67341;BME280;54227;45.198;5.732;2022-11-11T03:08:59;100637.47;;;23.74;39.07
67341;BME280;54227;45.198;5.732;2022-11-11T03:11:24;100647.53;;;23.78;39.29
67341;BME280;54227;45.198;5.732;2022-11-11T03:13:57;100649.19;;;23.79;39.09
67341;BME280;54227;45.198;5.732;2022-11-11T03:16:23;100654.41;;;23.81;39.17
67341;BME280;54227;45.198;5.732;2022-11-11T03:19:07;100652.78;;;23.80;38.99
67341;BME280;54227;45.198;5.732;2022-11-11T03:21:32;100652.78;;;23.80;39.08
67341;BME280;54227;45.198;5.732;2022-11-11T03:23:58;100657.91;;;23.78;39.05
67341;BME280;54227;45.198;5.732;2022-11-11T03:26:23;100663.50;;;23.78;38.93
67341;BME280;54227;45.198;5.732;2022-11-11T03:28:49;100668.72;;;23.79;39.13
67341;BME280;54227;45.198;5.732;2022-11-11T03:31:15;100667.09;;;23.78;38.92
67341;BME280;54227;45.198;5.732;2022-11-11T03:33:41;100679.53;;;23.81;38.93
67341;BME280;54227;45.198;5.732;2022-11-11T03:36:06;100677.13;;;23.79;38.87
67341;BME280;54227;45.198;5.732;2022-11-11T03:38:32;100679.06;;;23.79;38.84
67341;BME280;54227;45.198;5.732;2022-11-11T03:40:57;100678.25;;;23.78;38.76
67341;BME280;54227;45.198;5.732;2022-11-11T03:43:25;100682.34;;;23.81;38.79
67341;BME280;54227;45.198;5.732;2022-11-11T03:45:53;100684.66;;;23.79;38.70
67341;BME280;54227;45.198;5.732;2022-11-11T03:48:19;100687.47;;;23.79;38.67
67341;BME280;54227;45.198;5.732;2022-11-11T03:50:46;100704.69;;;23.81;38.95
67341;BME280;54227;45.198;5.732;2022-11-11T03:53:16;100701.09;;;23.80;38.74
67341;BME280;54227;45.198;5.732;2022-11-11T03:55:42;100703.41;;;23.78;38.89
67341;BME280;54227;45.198;5.732;2022-11-11T03:58:07;100716.66;;;23.81;38.77
67341;BME280;54227;45.198;5.732;2022-11-11T04:00:33;100719.47;;;23.81;38.76
67341;BME280;54227;45.198;5.732;2022-11-11T04:03:08;100714.25;;;23.80;38.76
67341;BME280;54227;45.198;5.732;2022-11-11T04:05:53;100715.88;;;23.81;38.57
67341;BME280;54227;45.198;5.732;2022-11-11T04:08:47;100711.91;;;23.82;38.68
67341;BME280;54227;45.198;5.732;2022-11-11T04:11:52;100711.44;;;23.80;38.79
67341;BME280;54227;45.198;5.732;2022-11-11T04:14:17;100710.28;;;23.81;38.59
67341;BME280;54227;45.198;5.732;2022-11-11T04:17:01;100694.69;;;23.80;38.67
67341;BME280;54227;45.198;5.732;2022-11-11T04:19:27;100704.69;;;23.81;38.54
67341;BME280;54227;45.198;5.732;2022-11-11T04:22:11;100706.19;;;23.78;38.69
67341;BME280;54227;45.198;5.732;2022-11-11T04:24:36;100716.56;;;23.78;38.78
67341;BME280;54227;45.198;5.732;2022-11-11T04:27:20;100719.03;;;23.79;38.59
67341;BME280;54227;45.198;5.732;2022-11-11T04:29:45;100722.97;;;23.78;38.67
67341;BME280;54227;45.198;5.732;2022-11-11T04:32:16;100726.56;;;23.79;38.63
67341;BME280;54227;45.198;5.732;2022-11-11T04:35:08;100728.56;;;23.78;38.64
67341;BME280;54227;45.198;5.732;2022-11-11T04:37:35;100726.13;;;23.77;38.61
67341;BME280;54227;45.198;5.732;2022-11-11T04:40:02;100733.34;;;23.78;38.46
67341;BME280;54227;45.198;5.732;2022-11-11T04:42:46;100733.00;;;23.79;38.55
67341;BME280;54227;45.198;5.732;2022-11-11T04:45:12;100733.34;;;23.78;38.44
67341;BME280;54227;45.198;5.732;2022-11-11T04:50:33;100728.50;;;23.75;38.47
67341;BME280;54227;45.198;5.732;2022-11-11T04:52:59;100745.25;;;23.75;38.50
67341;BME280;54227;45.198;5.732;2022-11-11T04:55:25;100742.03;;;23.73;38.45
67341;BME280;54227;45.198;5.732;2022-11-11T04:58:10;100746.88;;;23.76;38.69
67341;BME280;54227;45.198;5.732;2022-11-11T05:00:36;100750.41;;;23.73;38.64
67341;BME280;54227;45.198;5.732;2022-11-11T05:03:02;100760.84;;;23.76;38.73
67341;BME280;54227;45.198;5.732;2022-11-11T05:05:59;100751.72;;;23.79;38.76
67341;BME280;54227;45.198;5.732;2022-11-11T05:08:48;100762.19;;;23.82;38.41
67341;BME280;54227;45.198;5.732;2022-11-11T05:11:35;100757.41;;;23.82;38.49
67341;BME280;54227;45.198;5.732;2022-11-11T05:14:05;100762.19;;;23.82;38.49
67341;BME280;54227;45.198;5.732;2022-11-11T05:16:52;100755.69;;;23.78;38.49
67341;BME280;54227;45.198;5.732;2022-11-11T05:19:37;100768.59;;;23.82;38.40
67341;BME280;54227;45.198;5.732;2022-11-11T05:24:52;100771.38;;;23.82;38.48
67341;BME280;54227;45.198;5.732;2022-11-11T05:27:37;100775.34;;;23.81;38.33
67341;BME280;54227;45.198;5.732;2022-11-11T05:30:03;100780.13;;;23.81;38.42
67341;BME280;54227;45.198;5.732;2022-11-11T05:32:29;100781.31;;;23.80;38.19
67341;BME280;54227;45.198;5.732;2022-11-11T05:34:54;100786.88;;;23.80;38.20
67341;BME280;54227;45.198;5.732;2022-11-11T05:37:20;100788.50;;;23.81;38.33
67341;BME280;54227;45.198;5.732;2022-11-11T05:39:45;100785.63;;;23.77;38.31
67341;BME280;54227;45.198;5.732;2022-11-11T05:42:11;100795.28;;;23.80;38.10
67341;BME280;54227;45.198;5.732;2022-11-11T05:44:37;100798.06;;;23.80;38.19
67341;BME280;54227;45.198;5.732;2022-11-11T05:47:02;100796.41;;;23.79;38.26
67341;BME280;54227;45.198;5.732;2022-11-11T05:49:28;100790.03;;;23.78;38.02
67341;BME280;54227;45.198;5.732;2022-11-11T05:51:53;100794.47;;;23.79;37.95
67341;BME280;54227;45.198;5.732;2022-11-11T05:54:21;100790.84;;;23.79;38.11
67341;BME280;54227;45.198;5.732;2022-11-11T05:56:47;100794.81;;;23.78;38.17
67341;BME280;54227;45.198;5.732;2022-11-11T05:59:13;100791.56;;;23.76;38.21
67341;BME280;54227;45.198;5.732;2022-11-11T06:01:39;100788.03;;;23.79;38.27
67341;BME280;54227;45.198;5.732;2022-11-11T06:04:04;100801.19;;;23.78;38.11
67341;BME280;54227;45.198;5.732;2022-11-11T06:06:31;100805.97;;;23.78;38.16
67341;BME280;54227;45.198;5.732;2022-11-11T06:08:57;100801.94;;;23.75;38.13
67341;BME280;54227;45.198;5.732;2022-11-11T06:11:22;100803.19;;;23.78;38.28
67341;BME280;54227;45.198;5.732;2022-11-11T06:13:48;100810.75;;;23.77;38.16
67341;BME280;54227;45.198;5.732;2022-11-11T06:16:13;100819.50;;;23.76;38.46
67341;BME280;54227;45.198;5.732;2022-11-11T06:18:39;100813.56;;;23.77;38.05
67341;BME280;54227;45.198;5.732;2022-11-11T06:21:04;100814.38;;;23.78;38.03
67341;BME280;54227;45.198;5.732;2022-11-11T06:23:30;100809.13;;;23.76;38.26
67341;BME280;54227;45.198;5.732;2022-11-11T06:25:56;100823.56;;;23.78;38.03
67341;BME280;54227;45.198;5.732;2022-11-11T06:28:45;100826.34;;;23.78;38.36
67341;BME280;54227;45.198;5.732;2022-11-11T06:31:16;100817.53;;;23.76;38.35
67341;BME280;54227;45.198;5.732;2022-11-11T06:33:42;100827.88;;;23.76;38.10
67341;BME280;54227;45.198;5.732;2022-11-11T06:36:10;100831.13;;;23.78;38.20
67341;BME280;54227;45.198;5.732;2022-11-11T06:38:37;100829.50;;;23.77;38.19
67341;BME280;54227;45.198;5.732;2022-11-11T06:41:03;100830.31;;;23.77;38.14
67341;BME280;54227;45.198;5.732;2022-11-11T06:43:28;100832.41;;;23.80;38.28
67341;BME280;54227;45.198;5.732;2022-11-11T06:45:54;100830.06;;;23.82;38.39
67341;BME280;54227;45.198;5.732;2022-11-11T06:48:21;100834.03;;;23.81;38.50
67341;BME280;54227;45.198;5.732;2022-11-11T06:50:47;100834.47;;;23.83;38.17
67341;BME280;54227;45.198;5.732;2022-11-11T06:53:14;100842.03;;;23.83;38.25
67341;BME280;54227;45.198;5.732;2022-11-11T06:55:40;100840.41;;;23.82;38.09
67341;BME280;54227;45.198;5.732;2022-11-11T06:58:07;100843.22;;;23.82;38.11
67341;BME280;54227;45.198;5.732;2022-11-11T07:00:34;100845.56;;;23.80;38.19
67341;BME280;54227;45.198;5.732;2022-11-11T07:03:00;100843.09;;;23.78;38.11
67341;BME280;54227;45.198;5.732;2022-11-11T07:05:26;100854.75;;;23.80;37.96
67341;BME280;54227;45.198;5.732;2022-11-11T07:07:51;100852.31;;;23.79;38.11
67341;BME280;54227;45.198;5.732;2022-11-11T07:10:16;100859.06;;;23.78;38.11
67341;BME280;54227;45.198;5.732;2022-11-11T07:12:42;100858.25;;;23.77;38.02
67341;BME280;54227;45.198;5.732;2022-11-11T07:15:08;100853.13;;;23.79;38.02
67341;BME280;54227;45.198;5.732;2022-11-11T07:17:34;100851.50;;;23.78;38.16
67341;BME280;54227;45.198;5.732;2022-11-11T07:19:59;100845.47;;;23.76;37.78
67341;BME280;54227;45.198;5.732;2022-11-11T07:22:25;100848.38;;;23.80;38.03
67341;BME280;54227;45.198;5.732;2022-11-11T07:24:50;100842.78;;;23.80;38.04
67341;BME280;54227;45.198;5.732;2022-11-11T07:27:16;100849.97;;;23.81;37.89
67341;BME280;54227;45.198;5.732;2022-11-11T07:29:41;100853.59;;;23.81;38.02
67341;BME280;54227;45.198;5.732;2022-11-11T07:32:06;100853.94;;;23.80;37.99
67341;BME280;54227;45.198;5.732;2022-11-11T07:34:32;100852.78;;;23.81;37.78
67341;BME280;54227;45.198;5.732;2022-11-11T07:36:57;100857.19;;;23.82;38.16
67341;BME280;54227;45.198;5.732;2022-11-11T07:39:23;100859.53;;;23.80;37.99
67341;BME280;54227;45.198;5.732;2022-11-11T07:41:48;100865.13;;;23.80;37.91
67341;BME280;54227;45.198;5.732;2022-11-11T07:44:13;100869.53;;;23.81;38.14
67341;BME280;54227;45.198;5.732;2022-11-11T07:46:39;100863.16;;;23.80;38.08
67341;BME280;54227;45.198;5.732;2022-11-11T07:49:05;100862.34;;;23.80;38.19
67341;BME280;54227;45.198;5.732;2022-11-11T07:51:30;100867.44;;;23.78;38.03
67341;BME280;54227;45.198;5.732;2022-11-11T07:53:56;100877.13;;;23.80;38.06
67341;BME280;54227;45.198;5.732;2022-11-11T07:56:21;100863.94;;;23.81;38.03
67341;BME280;54227;45.198;5.732;2022-11-11T07:58:46;100867.91;;;23.80;37.94
67341;BME280;54227;45.198;5.732;2022-11-11T08:01:12;100865.13;;;23.80;38.06
67341;BME280;54227;45.198;5.732;2022-11-11T08:03:37;100861.16;;;23.81;38.22
67341;BME280;54227;45.198;5.732;2022-11-11T08:06:17;100862.78;;;23.82;37.96
67341;BME280;54227;45.198;5.732;2022-11-11T08:08:42;100865.56;;;23.82;38.08
67341;BME280;54227;45.198;5.732;2022-11-11T08:11:08;100856.38;;;23.81;38.13
67341;BME280;54227;45.198;5.732;2022-11-11T08:13:33;100864.41;;;23.83;38.01
67341;BME280;54227;45.198;5.732;2022-11-11T08:16:09;100858.81;;;23.83;38.10
67341;BME280;54227;45.198;5.732;2022-11-11T08:18:34;100858.44;;;23.84;38.01
67341;BME280;54227;45.198;5.732;2022-11-11T08:21:01;100858.00;;;23.82;37.98
67341;BME280;54227;45.198;5.732;2022-11-11T08:23:26;100856.00;;;23.83;38.08
67341;BME280;54227;45.198;5.732;2022-11-11T08:25:58;100858.06;;;23.86;38.07
67341;BME280;54227;45.198;5.732;2022-11-11T08:28:25;100853.66;;;23.85;38.23
67341;BME280;54227;45.198;5.732;2022-11-11T08:30:50;100852.47;;;23.86;38.21
67341;BME280;54227;45.198;5.732;2022-11-11T08:33:17;100854.94;;;23.87;38.30
67341;BME280;54227;45.198;5.732;2022-11-11T08:35:42;100856.44;;;23.85;38.05
67341;BME280;54227;45.198;5.732;2022-11-11T08:38:08;100859.34;;;23.88;38.02
67341;BME280;54227;45.198;5.732;2022-11-11T08:40:33;100857.00;;;23.91;38.16
67341;BME280;54227;45.198;5.732;2022-11-11T08:42:58;100852.66;;;23.93;38.21
67341;BME280;54227;45.198;5.732;2022-11-11T08:45:24;100844.38;;;23.97;38.10
67341;BME280;54227;45.198;5.732;2022-11-11T08:47:50;100840.78;;;23.96;38.05
67341;BME280;54227;45.198;5.732;2022-11-11T08:50:16;100843.19;;;23.98;37.92
67341;BME280;54227;45.198;5.732;2022-11-11T08:52:49;100838.41;;;23.98;38.24
67341;BME280;54227;45.198;5.732;2022-11-11T08:55:15;100828.84;;;23.99;38.11
67341;BME280;54227;45.198;5.732;2022-11-11T08:57:41;100843.66;;;24.00;38.09
67341;BME280;54227;45.198;5.732;2022-11-11T09:00:07;100830.47;;;24.00;37.98
67341;BME280;54227;45.198;5.732;2022-11-11T09:02:34;100835.63;;;23.98;38.20
67341;BME280;54227;45.198;5.732;2022-11-11T09:05:00;100839.34;;;24.02;38.17
67341;BME280;54227;45.198;5.732;2022-11-11T09:07:26;100832.13;;;24.01;38.11
67341;BME280;54227;45.198;5.732;2022-11-11T09:09:51;100842.50;;;24.01;38.23
67341;BME280;54227;45.198;5.732;2022-11-11T09:12:17;100839.34;;;24.02;38.15
67341;BME280;54227;45.198;5.732;2022-11-11T09:14:42;100841.31;;;24.02;38.12
67341;BME280;54227;45.198;5.732;2022-11-11T09:17:08;100836.91;;;24.01;38.02
67341;BME280;54227;45.198;5.732;2022-11-11T09:19:33;100830.94;;;24.02;38.13
67341;BME280;54227;45.198;5.732;2022-11-11T09:21:58;100820.94;;;24.01;38.11
67341;BME280;54227;45.198;5.732;2022-11-11T09:24:24;100817.78;;;24.03;37.93
67341;BME280;54227;45.198;5.732;2022-11-11T09:26:50;100813.00;;;24.03;37.95
67341;BME280;54227;45.198;5.732;2022-11-11T09:29:16;100817.41;;;24.04;37.94
67341;BME280;54227;45.198;5.732;2022-11-11T09:31:41;100817.78;;;24.03;37.94
67341;BME280;54227;45.198;5.732;2022-11-11T09:34:07;100813.00;;;24.03;38.00
67341;BME280;54227;45.198;5.732;2022-11-11T09:36:32;100817.41;;;24.04;38.24
67341;BME280;54227;45.198;5.732;2022-11-11T09:38:58;100817.03;;;24.06;38.21
67341;BME280;54227;45.198;5.732;2022-11-11T09:41:41;100815.78;;;24.03;37.96
67341;BME280;54227;45.198;5.732;2022-11-11T09:52:18;100825.06;;;24.07;38.07
67341;BME280;54227;45.198;5.732;2022-11-11T09:55:01;100832.63;;;24.07;38.21
67341;BME280;54227;45.198;5.732;2022-11-11T10:00:35;100832.63;;;24.07;38.14
67341;BME280;54227;45.198;5.732;2022-11-11T10:03:10;100836.25;;;24.07;38.12
67341;BME280;54227;45.198;5.732;2022-11-11T10:08:25;100830.66;;;24.07;38.24
67341;BME280;54227;45.198;5.732;2022-11-11T10:10:53;100838.69;;;24.09;38.29
67341;BME280;54227;45.198;5.732;2022-11-11T10:13:22;100833.91;;;24.09;38.32
67341;BME280;54227;45.198;5.732;2022-11-11T10:22:22;100815.59;;;24.12;38.26
67341;BME280;54227;45.198;5.732;2022-11-11T10:27:42;100813.22;;;24.14;38.23
67341;BME280;54227;45.198;5.732;2022-11-11T10:30:37;100806.03;;;24.13;38.10
67341;BME280;54227;45.198;5.732;2022-11-11T10:33:08;100805.66;;;24.14;38.31
67341;BME280;54227;45.198;5.732;2022-11-11T10:35:38;100808.44;;;24.14;38.30
67341;BME280;54227;45.198;5.732;2022-11-11T10:40:49;100805.66;;;24.14;38.36
67341;BME280;54227;45.198;5.732;2022-11-11T10:43:27;100802.84;;;24.14;38.38
67341;BME280;54227;45.198;5.732;2022-11-11T10:45:57;100799.34;;;24.17;38.38
67341;BME280;54227;45.198;5.732;2022-11-11T10:51:02;100785.38;;;24.17;38.41
67341;BME280;54227;45.198;5.732;2022-11-11T10:53:42;100781.41;;;24.19;38.14
67341;BME280;54227;45.198;5.732;2022-11-11T10:56:18;100779.41;;;24.19;38.40
67341;BME280;54227;45.198;5.732;2022-11-11T10:59:01;100784.63;;;24.21;38.27
67341;BME280;54227;45.198;5.732;2022-11-11T11:01:36;100775.00;;;24.18;38.38
67341;BME280;54227;45.198;5.732;2022-11-11T11:04:07;100783.81;;;24.20;38.49
67341;BME280;54227;45.198;5.732;2022-11-11T11:06:39;100777.84;;;24.22;38.24
67341;BME280;54227;45.198;5.732;2022-11-11T11:09:40;100775.06;;;24.22;38.49
67341;BME280;54227;45.198;5.732;2022-11-11T11:12:13;100760.75;;;24.23;38.57
67341;BME280;54227;45.198;5.732;2022-11-11T11:14:44;100762.72;;;24.23;38.52
67341;BME280;54227;45.198;5.732;2022-11-11T11:17:52;100764.34;;;24.24;38.26
67341;BME280;54227;45.198;5.732;2022-11-11T11:20:20;100752.34;;;24.23;38.38
67341;BME280;54227;45.198;5.732;2022-11-11T11:22:51;100750.75;;;24.22;38.50
67341;BME280;54227;45.198;5.732;2022-11-11T11:25:18;100749.56;;;24.23;38.34
67341;BME280;54227;45.198;5.732;2022-11-11T11:27:45;100746.75;;;24.23;38.33
67341;BME280;54227;45.198;5.732;2022-11-11T11:30:21;100743.59;;;24.25;38.49
67341;BME280;54227;45.198;5.732;2022-11-11T11:33:10;100738.00;;;24.25;38.49
67341;BME280;54227;45.198;5.732;2022-11-11T11:35:37;100745.97;;;24.23;38.59
67341;BME280;54227;45.198;5.732;2022-11-11T11:38:05;100736.81;;;24.26;38.54
67341;BME280;54227;45.198;5.732;2022-11-11T11:43:25;100731.22;;;24.26;38.65
67341;BME280;54227;45.198;5.732;2022-11-11T11:45:55;100728.44;;;24.26;38.56
67341;BME280;54227;45.198;5.732;2022-11-11T11:48:34;100722.84;;;24.26;38.51
67341;BME280;54227;45.198;5.732;2022-11-11T11:51:21;100723.28;;;24.28;38.50
67341;BME280;54227;45.198;5.732;2022-11-11T11:54:02;100731.41;;;24.33;38.38
67341;BME280;54227;45.198;5.732;2022-11-11T11:56:40;100716.06;;;24.27;38.65
67341;BME280;54227;45.198;5.732;2022-11-11T12:02:12;100706.88;;;24.26;38.70
67341;BME280;54227;45.198;5.732;2022-11-11T12:05:12;100699.28;;;24.27;38.61
67341;BME280;54227;45.198;5.732;2022-11-11T12:15:58;100682.53;;;24.27;38.63
67341;BME280;54227;45.198;5.732;2022-11-11T12:21:20;100671.34;;;24.27;38.72
67341;BME280;54227;45.198;5.732;2022-11-11T12:23:50;100677.72;;;24.27;38.83
67341;BME280;54227;45.198;5.732;2022-11-11T12:32:12;100660.16;;;24.27;38.75
67341;BME280;54227;45.198;5.732;2022-11-11T12:37:58;100645.34;;;24.26;38.97
67341;BME280;54227;45.198;5.732;2022-11-11T12:40:50;100645.78;;;24.28;38.93
67341;BME280;54227;45.198;5.732;2022-11-11T12:54:40;100614.22;;;24.28;38.83
67341;BME280;54227;45.198;5.732;2022-11-11T12:57:56;100605.41;;;24.26;39.05
67341;BME280;54227;45.198;5.732;2022-11-11T13:00:24;100605.03;;;24.27;38.93
67341;BME280;54227;45.198;5.732;2022-11-11T13:05:44;100590.25;;;24.27;38.75
67341;BME280;54227;45.198;5.732;2022-11-11T13:16:16;100579.50;;;24.29;38.85
67341;BME280;54227;45.198;5.732;2022-11-11T13:19:18;100578.69;;;24.28;38.70
67341;BME280;54227;45.198;5.732;2022-11-11T13:22:00;100568.31;;;24.29;38.77
67341;BME280;54227;45.198;5.732;2022-11-11T13:24:27;100562.72;;;24.29;38.76
67341;BME280;54227;45.198;5.732;2022-11-11T13:27:11;100567.50;;;24.28;38.56
67341;BME280;54227;45.198;5.732;2022-11-11T13:32:46;100549.56;;;24.29;38.67
67341;BME280;54227;45.198;5.732;2022-11-11T13:35:32;100545.13;;;24.28;38.86
67341;BME280;54227;45.198;5.732;2022-11-11T13:37:59;100540.34;;;24.29;38.63
67341;BME280;54227;45.198;5.732;2022-11-11T13:40:38;100540.34;;;24.29;38.53
67341;BME280;54227;45.198;5.732;2022-11-11T13:43:14;100531.97;;;24.29;38.46
67341;BME280;54227;45.198;5.732;2022-11-11T13:45:49;100526.38;;;24.29;38.67
67341;BME280;54227;45.198;5.732;2022-11-11T13:49:07;100520.78;;;24.29;38.69
67341;BME280;54227;45.198;5.732;2022-11-11T13:53:56;100524.03;;;24.31;38.86
67341;BME280;54227;45.198;5.732;2022-11-11T13:56:39;100515.56;;;24.27;38.78
67341;BME280;54227;45.198;5.732;2022-11-11T13:59:07;100516.81;;;24.30;38.84
67341;BME280;54227;45.198;5.732;2022-11-11T14:01:42;100513.22;;;24.29;38.86
67341;BME280;54227;45.198;5.732;2022-11-11T14:04:09;100519.63;;;24.30;38.94
67341;BME280;54227;45.198;5.732;2022-11-11T14:06:35;100515.63;;;24.31;38.84
67341;BME280;54227;45.198;5.732;2022-11-11T14:09:02;100523.22;;;24.30;38.92
67341;BME280;54227;45.198;5.732;2022-11-11T14:11:31;100525.22;;;24.30;38.92
67341;BME280;54227;45.198;5.732;2022-11-11T14:24:37;100521.22;;;24.31;39.26
67341;BME280;54227;45.198;5.732;2022-11-11T14:29:47;100515.63;;;24.31;39.41
67341;BME280;54227;45.198;5.732;2022-11-11T14:40:22;100516.03;;;24.29;39.67
67341;BME280;54227;45.198;5.732;2022-11-11T14:42:47;100517.19;;;24.28;39.75
67341;BME280;54227;45.198;5.732;2022-11-11T14:47:48;100510.78;;;24.28;39.68
67341;BME280;54227;45.198;5.732;2022-11-11T14:53:18;100508.44;;;24.30;39.88
67341;BME280;54227;45.198;5.732;2022-11-11T14:55:50;100516.81;;;24.30;39.88
67341;BME280;54227;45.198;5.732;2022-11-11T14:58:19;100520.44;;;24.30;39.99
67341;BME280;54227;45.198;5.732;2022-11-11T15:00:48;100519.16;;;24.28;40.06
67341;BME280;54227;45.198;5.732;2022-11-11T15:05:58;100520.34;;;24.27;39.90
67341;BME280;54227;45.198;5.732;2022-11-11T15:08:45;100511.59;;;24.28;40.13
67341;BME280;54227;45.198;5.732;2022-11-11T15:21:51;100518.44;;;24.31;40.08
67341;BME280;54227;45.198;5.732;2022-11-11T15:27:26;100518.91;;;24.33;40.16